SUCCESS DAM (SCC)

Elevation: 692' · TULE R basin · Operator: US Army Corps of Engineers

Provisional data, subject to change.
Query executed Friday at 11:42:14   clock

Select a sensor type for a plot of data.
Note: Reservoir Flows are daily averages.

Earlier

Date RES ELE    STORAGE    RES CHG    TOC STO    ABV TOC    OUTFLOW    INFLOW    FNF    PPT INC    PPTINC4    TEMP MN    TEMP MX    WINDLEN    EVP PAN   
 FEET   AF   AF   AF   AF   CFS   CFS   CFS   INCHES   INCHES   DEG F   DEG F   MILES   INCHES  
12/31/2014 581.42 4654 9 -- -- -- -- 23 0.00 0.00 -- -- -- --
01/01/2015 581.45 4663 9 10100 -5437 18 23 23 0.00 0.00 -1 14 62 0.06
01/02/2015 581.47 4669 6 10100 -5431 17 20 20 0.00 0.00 -2 13 53 0.05
01/03/2015 581.50 4678 9 10100 -5422 17 22 22 0.00 0.00 -1 13 55 0.05
01/04/2015 581.52 4684 6 10100 -5416 16 19 19 0.00 0.00 -1 14 57 0.05
01/05/2015 581.55 4693 9 10100 -5407 16 21 21 0.00 0.00 1 17 49 0.06
01/06/2015 581.57 4699 6 10100 -5401 19 22 22 0.00 0.00 3 21 53 0.07
01/07/2015 581.58 4702 3 10100 -5398 20 23 23 0.00 0.00 3 21 51 0.07
01/08/2015 581.59 4705 3 10100 -5395 20 23 23 0.00 0.00 5 20 59 0.06
01/09/2015 581.61 4711 6 10100 -5389 20 24 24 0.00 0.00 9 20 49 0.06
01/10/2015 581.64 4720 9 10100 -5380 21 26 26 0.00 0.00 7 20 52 0.06
01/11/2015 581.69 4736 16 10100 -5364 21 29 29 0.00 0.00 7 17 41 0.04
01/12/2015 581.79 4766 30 10100 -5334 12 28 28 0.00 0.00 6 14 40 0.03
01/13/2015 581.91 4803 37 10500 -5697 6 25 25 0.00 0.00 7 17 45 0.05
01/14/2015 582.02 4836 33 10500 -5664 5 23 23 0.00 0.00 4 18 53 0.06
01/15/2015 582.13 4870 34 10500 -5630 6 23 23 0.00 0.00 1 15 60 0.05
01/16/2015 582.24 4904 34 10500 -5596 5 23 23 0.00 0.00 5 15 57 0.06
01/17/2015 582.33 4932 28 10500 -5568 5 20 20 0.00 0.00 2 12 58 0.05
01/18/2015 582.42 4960 28 10500 -5540 5 20 20 0.00 0.00 7 14 66 0.05
01/19/2015 582.51 4989 29 10500 -5511 5 21 21 0.00 0.00 7 12 48 0.05
01/20/2015 582.60 5017 28 10500 -5483 6 20 20 0.00 0.00 8 10 31 0.02
01/21/2015 582.69 5045 28 10500 -5455 6 20 20 0.00 0.00 8 10 30 0.03
01/22/2015 582.78 5074 29 10500 -5426 6 21 21 0.00 0.00 6 13 45 0.05
01/23/2015 582.86 5099 25 10500 -5401 6 18 18 0.00 0.00 2 10 44 0.03
01/24/2015 582.93 5122 23 10500 -5378 6 18 18 0.00 0.00 2 11 61 0.05
01/25/2015 583.01 5147 25 10500 -5353 5 19 19 0.00 0.00 2 15 54 0.06
01/26/2015 583.09 5173 26 10500 -5327 8 22 22 0.00 0.00 5 17 71 0.05
01/27/2015 583.18 5202 29 10500 -5298 7 22 22 0.00 0.00 9 20 47 0.06
01/28/2015 583.28 5235 33 10500 -5265 7 25 25 0.00 0.00 8 18 41 0.06
01/29/2015 583.39 5270 35 10500 -5230 -- -- -- -- 0.00 -- -- -- --
01/30/2015 -- -- -- -- -- -- -- -- -- 0.00 -- -- -- --

Later | Latest

Warning! This data is preliminary and subject to revision.

Show SCC Map | Plot SCC Data | 1 Month SCC Data | Real-Time SCC Data | SCC Info